sensor_id;sensor_type;location;lat;lon;timestamp;temperature;humidity
11764;DHT22;5939;56.522;14.950;2022-08-20T00:01:03;23.20;99.90
11764;DHT22;5939;56.522;14.950;2022-08-20T00:03:37;23.10;99.90
11764;DHT22;5939;56.522;14.950;2022-08-20T00:06:05;23.10;99.90
11764;DHT22;5939;56.522;14.950;2022-08-20T00:08:31;23.10;99.90
11764;DHT22;5939;56.522;14.950;2022-08-20T00:10:58;23.10;99.90
11764;DHT22;5939;56.522;14.950;2022-08-20T00:13:28;23.10;99.90
11764;DHT22;5939;56.522;14.950;2022-08-20T00:15:55;23.10;99.90
11764;DHT22;5939;56.522;14.950;2022-08-20T00:18:21;23.10;99.90
11764;DHT22;5939;56.522;14.950;2022-08-20T00:20:49;23.10;99.90
11764;DHT22;5939;56.522;14.950;2022-08-20T00:23:16;23.10;99.90
11764;DHT22;5939;56.522;14.950;2022-08-20T00:25:42;23.00;99.90
11764;DHT22;5939;56.522;14.950;2022-08-20T00:28:08;23.10;99.90
11764;DHT22;5939;56.522;14.950;2022-08-20T00:30:35;23.00;99.90
11764;DHT22;5939;56.522;14.950;2022-08-20T00:33:07;23.00;99.90
11764;DHT22;5939;56.522;14.950;2022-08-20T00:35:35;23.00;99.90
11764;DHT22;5939;56.522;14.950;2022-08-20T00:38:02;23.00;99.90
11764;DHT22;5939;56.522;14.950;2022-08-20T00:40:35;23.00;99.90
11764;DHT22;5939;56.522;14.950;2022-08-20T00:43:06;23.00;99.90
11764;DHT22;5939;56.522;14.950;2022-08-20T00:45:34;23.00;99.90
11764;DHT22;5939;56.522;14.950;2022-08-20T00:47:59;22.90;99.90
11764;DHT22;5939;56.522;14.950;2022-08-20T00:50:30;22.90;99.90
11764;DHT22;5939;56.522;14.950;2022-08-20T00:52:58;22.90;99.90
11764;DHT22;5939;56.522;14.950;2022-08-20T00:55:25;22.90;99.90
11764;DHT22;5939;56.522;14.950;2022-08-20T00:57:54;22.90;99.90
11764;DHT22;5939;56.522;14.950;2022-08-20T01:00:33;22.90;99.90
11764;DHT22;5939;56.522;14.950;2022-08-20T01:03:00;22.90;99.90
11764;DHT22;5939;56.522;14.950;2022-08-20T01:05:27;22.90;99.90
11764;DHT22;5939;56.522;14.950;2022-08-20T01:07:53;22.90;99.90
11764;DHT22;5939;56.522;14.950;2022-08-20T01:10:27;22.90;99.90
11764;DHT22;5939;56.522;14.950;2022-08-20T01:12:56;22.80;99.90
11764;DHT22;5939;56.522;14.950;2022-08-20T01:15:26;22.80;99.90
11764;DHT22;5939;56.522;14.950;2022-08-20T01:17:54;22.80;99.90
11764;DHT22;5939;56.522;14.950;2022-08-20T01:20:42;22.80;99.90
11764;DHT22;5939;56.522;14.950;2022-08-20T01:24:25;22.80;99.90
11764;DHT22;5939;56.522;14.950;2022-08-20T01:26:29;22.80;99.90
11764;DHT22;5939;56.522;14.950;2022-08-20T01:29:22;22.80;99.90
11764;DHT22;5939;56.522;14.950;2022-08-20T01:31:48;22.80;99.90
11764;DHT22;5939;56.522;14.950;2022-08-20T01:34:18;22.80;99.90
11764;DHT22;5939;56.522;14.950;2022-08-20T01:36:48;22.80;99.90
11764;DHT22;5939;56.522;14.950;2022-08-20T01:39:18;22.80;99.90
11764;DHT22;5939;56.522;14.950;2022-08-20T01:44:44;22.80;99.90
11764;DHT22;5939;56.522;14.950;2022-08-20T01:47:30;22.70;99.90
11764;DHT22;5939;56.522;14.950;2022-08-20T01:49:59;22.70;99.90
11764;DHT22;5939;56.522;14.950;2022-08-20T01:55:16;22.70;99.90
11764;DHT22;5939;56.522;14.950;2022-08-20T01:57:42;22.70;99.90
11764;DHT22;5939;56.522;14.950;2022-08-20T02:00:12;22.70;99.90
11764;DHT22;5939;56.522;14.950;2022-08-20T02:02:39;22.70;99.90
11764;DHT22;5939;56.522;14.950;2022-08-20T02:05:05;22.70;99.90
11764;DHT22;5939;56.522;14.950;2022-08-20T02:07:31;22.70;99.90
11764;DHT22;5939;56.522;14.950;2022-08-20T02:09:58;22.70;99.90
11764;DHT22;5939;56.522;14.950;2022-08-20T02:12:24;22.60;99.90
11764;DHT22;5939;56.522;14.950;2022-08-20T02:14:52;22.60;99.90
11764;DHT22;5939;56.522;14.950;2022-08-20T02:17:20;22.60;99.90
11764;DHT22;5939;56.522;14.950;2022-08-20T02:20:15;22.60;99.90
11764;DHT22;5939;56.522;14.950;2022-08-20T02:22:51;22.60;99.90
11764;DHT22;5939;56.522;14.950;2022-08-20T02:25:19;22.60;99.90
11764;DHT22;5939;56.522;14.950;2022-08-20T02:27:46;22.60;99.90
11764;DHT22;5939;56.522;14.950;2022-08-20T02:30:17;22.60;99.90
11764;DHT22;5939;56.522;14.950;2022-08-20T02:32:44;22.60;99.90
11764;DHT22;5939;56.522;14.950;2022-08-20T02:35:11;22.60;99.90
11764;DHT22;5939;56.522;14.950;2022-08-20T02:37:40;22.60;99.90
11764;DHT22;5939;56.522;14.950;2022-08-20T02:40:09;22.50;99.90
11764;DHT22;5939;56.522;14.950;2022-08-20T02:42:35;22.50;99.90
11764;DHT22;5939;56.522;14.950;2022-08-20T02:45:04;22.50;99.90
11764;DHT22;5939;56.522;14.950;2022-08-20T02:47:31;22.50;99.90
11764;DHT22;5939;56.522;14.950;2022-08-20T02:49:56;22.50;99.90
11764;DHT22;5939;56.522;14.950;2022-08-20T02:52:24;22.50;99.90
11764;DHT22;5939;56.522;14.950;2022-08-20T02:54:50;22.50;99.90
11764;DHT22;5939;56.522;14.950;2022-08-20T02:57:17;22.50;99.90
11764;DHT22;5939;56.522;14.950;2022-08-20T02:59:48;22.50;99.90
11764;DHT22;5939;56.522;14.950;2022-08-20T03:02:16;22.50;99.90
11764;DHT22;5939;56.522;14.950;2022-08-20T03:04:42;22.50;99.90
11764;DHT22;5939;56.522;14.950;2022-08-20T03:07:08;22.50;99.90
11764;DHT22;5939;56.522;14.950;2022-08-20T03:09:35;22.50;99.90
11764;DHT22;5939;56.522;14.950;2022-08-20T03:12:02;22.40;99.90
11764;DHT22;5939;56.522;14.950;2022-08-20T03:14:28;22.50;99.90
11764;DHT22;5939;56.522;14.950;2022-08-20T03:16:53;22.50;99.90
11764;DHT22;5939;56.522;14.950;2022-08-20T03:19:19;22.50;99.90
11764;DHT22;5939;56.522;14.950;2022-08-20T03:21:45;22.40;99.90
11764;DHT22;5939;56.522;14.950;2022-08-20T03:24:12;22.50;99.90
11764;DHT22;5939;56.522;14.950;2022-08-20T03:26:37;22.40;99.90
11764;DHT22;5939;56.522;14.950;2022-08-20T03:29:03;22.40;99.90
11764;DHT22;5939;56.522;14.950;2022-08-20T03:31:29;22.40;99.90
11764;DHT22;5939;56.522;14.950;2022-08-20T03:33:55;22.40;99.90
11764;DHT22;5939;56.522;14.950;2022-08-20T03:36:22;22.40;99.90
11764;DHT22;5939;56.522;14.950;2022-08-20T03:38:48;22.40;99.90
11764;DHT22;5939;56.522;14.950;2022-08-20T03:41:14;22.40;99.90
11764;DHT22;5939;56.522;14.950;2022-08-20T03:43:40;22.40;99.90
11764;DHT22;5939;56.522;14.950;2022-08-20T03:46:06;22.40;99.90
11764;DHT22;5939;56.522;14.950;2022-08-20T03:48:32;22.40;99.90
11764;DHT22;5939;56.522;14.950;2022-08-20T03:50:58;22.40;99.90
11764;DHT22;5939;56.522;14.950;2022-08-20T03:53:26;22.30;99.90
11764;DHT22;5939;56.522;14.950;2022-08-20T03:55:54;22.30;99.90
11764;DHT22;5939;56.522;14.950;2022-08-20T03:58:21;22.30;99.90
11764;DHT22;5939;56.522;14.950;2022-08-20T04:00:49;22.30;99.90
11764;DHT22;5939;56.522;14.950;2022-08-20T04:03:16;22.30;99.90
11764;DHT22;5939;56.522;14.950;2022-08-20T04:05:42;22.30;99.90
11764;DHT22;5939;56.522;14.950;2022-08-20T04:08:14;22.30;99.90
11764;DHT22;5939;56.522;14.950;2022-08-20T04:10:40;22.30;99.90
11764;DHT22;5939;56.522;14.950;2022-08-20T04:13:06;22.30;99.90
11764;DHT22;5939;56.522;14.950;2022-08-20T04:15:33;22.30;99.90
11764;DHT22;5939;56.522;14.950;2022-08-20T04:18:00;22.30;99.90
11764;DHT22;5939;56.522;14.950;2022-08-20T04:20:25;22.30;99.90
11764;DHT22;5939;56.522;14.950;2022-08-20T04:22:55;22.30;99.90
11764;DHT22;5939;56.522;14.950;2022-08-20T04:25:21;22.30;99.90
11764;DHT22;5939;56.522;14.950;2022-08-20T04:27:47;22.30;99.90
11764;DHT22;5939;56.522;14.950;2022-08-20T04:30:16;22.30;99.90
11764;DHT22;5939;56.522;14.950;2022-08-20T04:32:42;22.20;99.90
11764;DHT22;5939;56.522;14.950;2022-08-20T04:35:11;22.30;99.90
11764;DHT22;5939;56.522;14.950;2022-08-20T04:37:40;22.30;99.90
11764;DHT22;5939;56.522;14.950;2022-08-20T04:40:09;22.30;99.90
11764;DHT22;5939;56.522;14.950;2022-08-20T04:42:54;22.20;99.90
11764;DHT22;5939;56.522;14.950;2022-08-20T04:45:20;22.20;99.90
11764;DHT22;5939;56.522;14.950;2022-08-20T04:47:47;22.30;99.90
11764;DHT22;5939;56.522;14.950;2022-08-20T04:50:13;22.20;99.90
11764;DHT22;5939;56.522;14.950;2022-08-20T04:52:39;22.20;99.90
11764;DHT22;5939;56.522;14.950;2022-08-20T04:55:06;22.20;99.90
11764;DHT22;5939;56.522;14.950;2022-08-20T04:57:33;22.20;99.90
11764;DHT22;5939;56.522;14.950;2022-08-20T05:00:01;22.20;99.90
11764;DHT22;5939;56.522;14.950;2022-08-20T05:02:26;22.20;99.90
11764;DHT22;5939;56.522;14.950;2022-08-20T05:04:52;22.20;99.90
11764;DHT22;5939;56.522;14.950;2022-08-20T05:07:17;22.20;99.90
11764;DHT22;5939;56.522;14.950;2022-08-20T05:09:44;22.20;99.90
11764;DHT22;5939;56.522;14.950;2022-08-20T05:12:10;22.20;99.90
11764;DHT22;5939;56.522;14.950;2022-08-20T05:14:38;22.20;99.90
11764;DHT22;5939;56.522;14.950;2022-08-20T05:17:04;22.20;99.90
11764;DHT22;5939;56.522;14.950;2022-08-20T05:19:32;22.20;99.90
11764;DHT22;5939;56.522;14.950;2022-08-20T05:21:58;22.20;99.90
11764;DHT22;5939;56.522;14.950;2022-08-20T05:24:24;22.20;99.90
11764;DHT22;5939;56.522;14.950;2022-08-20T05:26:50;22.20;99.90
11764;DHT22;5939;56.522;14.950;2022-08-20T05:29:16;22.20;99.90
11764;DHT22;5939;56.522;14.950;2022-08-20T05:31:42;22.20;99.90
11764;DHT22;5939;56.522;14.950;2022-08-20T05:34:10;22.20;99.90
11764;DHT22;5939;56.522;14.950;2022-08-20T05:36:42;22.20;99.90
11764;DHT22;5939;56.522;14.950;2022-08-20T05:39:08;22.20;99.90
11764;DHT22;5939;56.522;14.950;2022-08-20T05:41:35;22.20;99.90
11764;DHT22;5939;56.522;14.950;2022-08-20T05:44:01;22.20;99.90
11764;DHT22;5939;56.522;14.950;2022-08-20T05:46:28;22.20;99.90
11764;DHT22;5939;56.522;14.950;2022-08-20T05:48:55;22.20;99.90
11764;DHT22;5939;56.522;14.950;2022-08-20T05:51:21;22.20;99.90
11764;DHT22;5939;56.522;14.950;2022-08-20T05:53:47;22.20;99.90
11764;DHT22;5939;56.522;14.950;2022-08-20T05:56:13;22.20;99.90
11764;DHT22;5939;56.522;14.950;2022-08-20T05:58:38;22.20;99.90
11764;DHT22;5939;56.522;14.950;2022-08-20T06:01:04;22.20;99.90
11764;DHT22;5939;56.522;14.950;2022-08-20T06:03:30;22.20;99.90
11764;DHT22;5939;56.522;14.950;2022-08-20T06:06:14;22.20;99.90
11764;DHT22;5939;56.522;14.950;2022-08-20T06:08:40;22.20;99.90
11764;DHT22;5939;56.522;14.950;2022-08-20T06:11:06;22.20;99.90
11764;DHT22;5939;56.522;14.950;2022-08-20T06:13:32;22.20;99.90
11764;DHT22;5939;56.522;14.950;2022-08-20T06:15:59;22.20;99.90
11764;DHT22;5939;56.522;14.950;2022-08-20T06:18:25;22.20;99.90
11764;DHT22;5939;56.522;14.950;2022-08-20T06:20:50;22.20;99.90
11764;DHT22;5939;56.522;14.950;2022-08-20T06:23:17;22.20;99.90
11764;DHT22;5939;56.522;14.950;2022-08-20T06:25:43;22.20;99.90
11764;DHT22;5939;56.522;14.950;2022-08-20T06:28:09;22.20;99.90
11764;DHT22;5939;56.522;14.950;2022-08-20T06:30:35;22.20;99.90
11764;DHT22;5939;56.522;14.950;2022-08-20T06:33:01;22.20;99.90
11764;DHT22;5939;56.522;14.950;2022-08-20T06:35:26;22.20;99.90
11764;DHT22;5939;56.522;14.950;2022-08-20T06:37:52;22.20;99.90
11764;DHT22;5939;56.522;14.950;2022-08-20T06:40:22;22.20;99.90
11764;DHT22;5939;56.522;14.950;2022-08-20T06:42:49;22.20;99.90
11764;DHT22;5939;56.522;14.950;2022-08-20T06:45:18;22.30;99.90
11764;DHT22;5939;56.522;14.950;2022-08-20T06:47:45;22.30;99.90
11764;DHT22;5939;56.522;14.950;2022-08-20T06:50:18;22.20;99.90
11764;DHT22;5939;56.522;14.950;2022-08-20T06:52:45;22.30;99.90
11764;DHT22;5939;56.522;14.950;2022-08-20T06:55:12;22.30;99.90
11764;DHT22;5939;56.522;14.950;2022-08-20T06:57:38;22.30;99.90
11764;DHT22;5939;56.522;14.950;2022-08-20T07:00:10;22.30;99.90
11764;DHT22;5939;56.522;14.950;2022-08-20T07:02:36;22.30;99.90
11764;DHT22;5939;56.522;14.950;2022-08-20T07:05:05;22.30;99.90
11764;DHT22;5939;56.522;14.950;2022-08-20T07:07:32;22.30;99.90
11764;DHT22;5939;56.522;14.950;2022-08-20T07:10:10;22.30;99.90
11764;DHT22;5939;56.522;14.950;2022-08-20T07:12:36;22.30;99.90
11764;DHT22;5939;56.522;14.950;2022-08-20T07:15:10;22.30;99.90
11764;DHT22;5939;56.522;14.950;2022-08-20T07:17:37;22.30;99.90
11764;DHT22;5939;56.522;14.950;2022-08-20T07:20:08;22.30;99.90
11764;DHT22;5939;56.522;14.950;2022-08-20T07:22:34;22.30;99.90
11764;DHT22;5939;56.522;14.950;2022-08-20T07:25:06;22.30;99.90
11764;DHT22;5939;56.522;14.950;2022-08-20T07:27:32;22.30;99.90
11764;DHT22;5939;56.522;14.950;2022-08-20T07:29:57;22.30;99.90
11764;DHT22;5939;56.522;14.950;2022-08-20T07:32:42;22.30;99.90
11764;DHT22;5939;56.522;14.950;2022-08-20T07:35:11;22.30;99.90
11764;DHT22;5939;56.522;14.950;2022-08-20T07:37:42;22.30;99.90
11764;DHT22;5939;56.522;14.950;2022-08-20T07:40:11;22.30;99.90
11764;DHT22;5939;56.522;14.950;2022-08-20T07:42:37;22.30;99.90
11764;DHT22;5939;56.522;14.950;2022-08-20T07:45:12;22.30;99.90
11764;DHT22;5939;56.522;14.950;2022-08-20T07:47:41;22.30;99.90
11764;DHT22;5939;56.522;14.950;2022-08-20T07:50:09;22.30;99.90
11764;DHT22;5939;56.522;14.950;2022-08-20T07:52:35;22.40;99.90
11764;DHT22;5939;56.522;14.950;2022-08-20T07:55:07;22.40;99.90
11764;DHT22;5939;56.522;14.950;2022-08-20T07:57:34;22.40;99.90
11764;DHT22;5939;56.522;14.950;2022-08-20T07:59:59;22.30;99.90
11764;DHT22;5939;56.522;14.950;2022-08-20T08:02:26;22.40;99.90
11764;DHT22;5939;56.522;14.950;2022-08-20T08:04:52;22.40;99.90
11764;DHT22;5939;56.522;14.950;2022-08-20T08:07:18;22.40;99.90
11764;DHT22;5939;56.522;14.950;2022-08-20T08:09:45;22.40;99.90
11764;DHT22;5939;56.522;14.950;2022-08-20T08:12:12;22.40;99.90
11764;DHT22;5939;56.522;14.950;2022-08-20T08:14:40;22.40;99.90
11764;DHT22;5939;56.522;14.950;2022-08-20T08:17:10;22.40;99.90
11764;DHT22;5939;56.522;14.950;2022-08-20T08:19:40;22.40;99.90
11764;DHT22;5939;56.522;14.950;2022-08-20T08:22:08;22.40;99.90
11764;DHT22;5939;56.522;14.950;2022-08-20T08:24:37;22.40;99.90
11764;DHT22;5939;56.522;14.950;2022-08-20T08:27:03;22.40;99.90
11764;DHT22;5939;56.522;14.950;2022-08-20T08:29:29;22.40;99.90
11764;DHT22;5939;56.522;14.950;2022-08-20T08:31:55;22.40;99.90
11764;DHT22;5939;56.522;14.950;2022-08-20T08:34:21;22.40;99.90
11764;DHT22;5939;56.522;14.950;2022-08-20T08:36:51;22.40;99.90
11764;DHT22;5939;56.522;14.950;2022-08-20T08:39:17;22.40;99.90
11764;DHT22;5939;56.522;14.950;2022-08-20T08:41:46;22.50;99.90
11764;DHT22;5939;56.522;14.950;2022-08-20T08:44:18;22.40;99.90
11764;DHT22;5939;56.522;14.950;2022-08-20T08:46:51;22.40;99.90
11764;DHT22;5939;56.522;14.950;2022-08-20T08:49:23;22.50;99.90
11764;DHT22;5939;56.522;14.950;2022-08-20T08:52:11;22.50;99.90
11764;DHT22;5939;56.522;14.950;2022-08-20T08:54:43;22.50;99.90
11764;DHT22;5939;56.522;14.950;2022-08-20T08:57:10;22.50;99.90
11764;DHT22;5939;56.522;14.950;2022-08-20T08:59:36;22.50;99.90
11764;DHT22;5939;56.522;14.950;2022-08-20T09:02:02;22.50;99.90
11764;DHT22;5939;56.522;14.950;2022-08-20T09:04:39;22.50;99.90
11764;DHT22;5939;56.522;14.950;2022-08-20T09:07:08;22.50;99.90
11764;DHT22;5939;56.522;14.950;2022-08-20T09:09:39;22.50;99.90
11764;DHT22;5939;56.522;14.950;2022-08-20T09:12:08;22.50;99.90
11764;DHT22;5939;56.522;14.950;2022-08-20T09:14:35;22.50;99.90
11764;DHT22;5939;56.522;14.950;2022-08-20T09:17:01;22.60;99.90
11764;DHT22;5939;56.522;14.950;2022-08-20T09:19:27;22.60;99.90
11764;DHT22;5939;56.522;14.950;2022-08-20T09:21:52;22.60;99.90
11764;DHT22;5939;56.522;14.950;2022-08-20T09:24:18;22.60;99.90
11764;DHT22;5939;56.522;14.950;2022-08-20T09:26:44;22.60;99.90
11764;DHT22;5939;56.522;14.950;2022-08-20T09:29:09;22.60;99.90
11764;DHT22;5939;56.522;14.950;2022-08-20T09:31:36;22.60;99.90
11764;DHT22;5939;56.522;14.950;2022-08-20T09:34:02;22.60;99.90
11764;DHT22;5939;56.522;14.950;2022-08-20T09:36:27;22.60;99.90
11764;DHT22;5939;56.522;14.950;2022-08-20T09:38:53;22.70;99.90
11764;DHT22;5939;56.522;14.950;2022-08-20T09:41:19;22.70;99.90
11764;DHT22;5939;56.522;14.950;2022-08-20T09:43:45;22.70;99.90
11764;DHT22;5939;56.522;14.950;2022-08-20T09:46:11;22.70;99.90
11764;DHT22;5939;56.522;14.950;2022-08-20T09:48:36;22.70;99.90
11764;DHT22;5939;56.522;14.950;2022-08-20T09:51:02;22.70;99.90
11764;DHT22;5939;56.522;14.950;2022-08-20T09:53:28;22.70;99.90
11764;DHT22;5939;56.522;14.950;2022-08-20T09:55:55;22.70;99.90
11764;DHT22;5939;56.522;14.950;2022-08-20T09:58:34;22.70;99.90
11764;DHT22;5939;56.522;14.950;2022-08-20T10:01:10;22.70;99.90
11764;DHT22;5939;56.522;14.950;2022-08-20T10:03:36;22.80;99.90
11764;DHT22;5939;56.522;14.950;2022-08-20T10:06:02;22.80;99.90
11764;DHT22;5939;56.522;14.950;2022-08-20T10:08:27;22.80;99.90
11764;DHT22;5939;56.522;14.950;2022-08-20T10:10:53;22.80;99.90
11764;DHT22;5939;56.522;14.950;2022-08-20T10:13:19;22.80;99.90
11764;DHT22;5939;56.522;14.950;2022-08-20T10:15:45;22.80;99.90
11764;DHT22;5939;56.522;14.950;2022-08-20T10:18:11;22.80;99.90
11764;DHT22;5939;56.522;14.950;2022-08-20T10:20:36;22.80;99.90
11764;DHT22;5939;56.522;14.950;2022-08-20T10:23:03;22.90;99.90
11764;DHT22;5939;56.522;14.950;2022-08-20T10:25:28;22.90;99.90
11764;DHT22;5939;56.522;14.950;2022-08-20T10:27:55;22.90;99.90
11764;DHT22;5939;56.522;14.950;2022-08-20T10:30:21;22.90;99.90
11764;DHT22;5939;56.522;14.950;2022-08-20T10:32:47;22.90;99.90
11764;DHT22;5939;56.522;14.950;2022-08-20T10:35:13;22.90;99.90
11764;DHT22;5939;56.522;14.950;2022-08-20T10:37:39;22.90;99.90
11764;DHT22;5939;56.522;14.950;2022-08-20T10:40:06;23.00;99.90
11764;DHT22;5939;56.522;14.950;2022-08-20T10:42:32;23.00;99.90
11764;DHT22;5939;56.522;14.950;2022-08-20T10:44:58;23.00;99.90
11764;DHT22;5939;56.522;14.950;2022-08-20T10:47:31;23.00;99.90
11764;DHT22;5939;56.522;14.950;2022-08-20T10:49:59;23.10;99.90
11764;DHT22;5939;56.522;14.950;2022-08-20T10:52:25;23.10;99.90
11764;DHT22;5939;56.522;14.950;2022-08-20T10:54:52;23.10;99.90
11764;DHT22;5939;56.522;14.950;2022-08-20T10:57:21;23.10;99.90
11764;DHT22;5939;56.522;14.950;2022-08-20T10:59:49;23.10;99.90
11764;DHT22;5939;56.522;14.950;2022-08-20T11:02:15;23.10;99.90
11764;DHT22;5939;56.522;14.950;2022-08-20T11:04:42;23.20;99.90
11764;DHT22;5939;56.522;14.950;2022-08-20T11:09:36;23.20;99.90
11764;DHT22;5939;56.522;14.950;2022-08-20T11:12:02;23.20;99.90
11764;DHT22;5939;56.522;14.950;2022-08-20T11:14:28;23.20;99.90
11764;DHT22;5939;56.522;14.950;2022-08-20T11:16:54;23.30;99.90
11764;DHT22;5939;56.522;14.950;2022-08-20T11:19:19;23.40;99.90
11764;DHT22;5939;56.522;14.950;2022-08-20T11:21:45;23.40;99.90
11764;DHT22;5939;56.522;14.950;2022-08-20T11:24:11;23.40;99.90
11764;DHT22;5939;56.522;14.950;2022-08-20T11:26:36;23.50;99.90
11764;DHT22;5939;56.522;14.950;2022-08-20T11:29:02;23.50;99.90
11764;DHT22;5939;56.522;14.950;2022-08-20T11:31:28;23.60;99.90
11764;DHT22;5939;56.522;14.950;2022-08-20T11:33:53;23.70;99.90
11764;DHT22;5939;56.522;14.950;2022-08-20T11:36:19;23.70;99.90
11764;DHT22;5939;56.522;14.950;2022-08-20T11:38:45;23.70;99.90
11764;DHT22;5939;56.522;14.950;2022-08-20T11:41:10;23.70;99.90
11764;DHT22;5939;56.522;14.950;2022-08-20T11:43:36;23.80;99.90
11764;DHT22;5939;56.522;14.950;2022-08-20T11:46:01;23.80;99.90
11764;DHT22;5939;56.522;14.950;2022-08-20T11:48:27;23.80;99.90
11764;DHT22;5939;56.522;14.950;2022-08-20T11:50:53;23.80;99.90
11764;DHT22;5939;56.522;14.950;2022-08-20T11:53:18;23.80;99.90
11764;DHT22;5939;56.522;14.950;2022-08-20T11:55:45;23.80;99.90
11764;DHT22;5939;56.522;14.950;2022-08-20T11:58:11;23.80;99.90
11764;DHT22;5939;56.522;14.950;2022-08-20T12:00:37;23.80;99.90
11764;DHT22;5939;56.522;14.950;2022-08-20T12:03:04;23.90;99.90
11764;DHT22;5939;56.522;14.950;2022-08-20T12:05:30;23.80;99.90
11764;DHT22;5939;56.522;14.950;2022-08-20T12:07:59;23.80;99.90
11764;DHT22;5939;56.522;14.950;2022-08-20T12:10:25;23.90;99.90
11764;DHT22;5939;56.522;14.950;2022-08-20T12:12:53;23.90;99.90
11764;DHT22;5939;56.522;14.950;2022-08-20T12:15:19;23.90;99.90
11764;DHT22;5939;56.522;14.950;2022-08-20T12:17:44;23.90;99.90
11764;DHT22;5939;56.522;14.950;2022-08-20T12:20:12;23.90;99.90
11764;DHT22;5939;56.522;14.950;2022-08-20T12:22:39;23.90;99.90
11764;DHT22;5939;56.522;14.950;2022-08-20T12:25:05;23.90;99.90
11764;DHT22;5939;56.522;14.950;2022-08-20T12:27:33;23.90;99.90
11764;DHT22;5939;56.522;14.950;2022-08-20T12:30:02;23.90;99.90
11764;DHT22;5939;56.522;14.950;2022-08-20T12:32:29;23.90;99.90
11764;DHT22;5939;56.522;14.950;2022-08-20T12:34:56;23.90;99.90
11764;DHT22;5939;56.522;14.950;2022-08-20T12:37:24;23.90;99.90
11764;DHT22;5939;56.522;14.950;2022-08-20T12:39:52;23.90;99.90
11764;DHT22;5939;56.522;14.950;2022-08-20T12:42:19;23.90;99.90
11764;DHT22;5939;56.522;14.950;2022-08-20T12:44:45;23.90;99.90
11764;DHT22;5939;56.522;14.950;2022-08-20T12:47:17;23.90;99.90
11764;DHT22;5939;56.522;14.950;2022-08-20T12:49:46;23.90;99.90
11764;DHT22;5939;56.522;14.950;2022-08-20T12:52:14;23.90;99.90
11764;DHT22;5939;56.522;14.950;2022-08-20T12:54:40;23.90;99.90
11764;DHT22;5939;56.522;14.950;2022-08-20T12:57:11;23.90;99.90
11764;DHT22;5939;56.522;14.950;2022-08-20T12:59:37;23.90;99.90
11764;DHT22;5939;56.522;14.950;2022-08-20T13:02:04;23.90;99.90
11764;DHT22;5939;56.522;14.950;2022-08-20T13:04:29;23.90;99.90
11764;DHT22;5939;56.522;14.950;2022-08-20T13:07:03;24.00;99.90
11764;DHT22;5939;56.522;14.950;2022-08-20T13:09:28;24.00;99.90
11764;DHT22;5939;56.522;14.950;2022-08-20T13:11:54;24.00;99.90
11764;DHT22;5939;56.522;14.950;2022-08-20T13:14:20;24.00;99.90
11764;DHT22;5939;56.522;14.950;2022-08-20T13:16:46;24.00;99.90
11764;DHT22;5939;56.522;14.950;2022-08-20T13:19:11;24.00;99.90
11764;DHT22;5939;56.522;14.950;2022-08-20T13:21:37;24.00;99.90
11764;DHT22;5939;56.522;14.950;2022-08-20T13:24:03;24.00;99.90
11764;DHT22;5939;56.522;14.950;2022-08-20T13:26:30;24.00;99.90
11764;DHT22;5939;56.522;14.950;2022-08-20T13:28:55;24.00;99.90
11764;DHT22;5939;56.522;14.950;2022-08-20T13:31:21;24.00;99.90
11764;DHT22;5939;56.522;14.950;2022-08-20T13:33:46;24.00;99.90
11764;DHT22;5939;56.522;14.950;2022-08-20T13:36:12;24.00;99.90
11764;DHT22;5939;56.522;14.950;2022-08-20T13:38:38;24.00;99.90
11764;DHT22;5939;56.522;14.950;2022-08-20T13:41:04;24.00;99.90
11764;DHT22;5939;56.522;14.950;2022-08-20T13:43:29;24.10;99.90
11764;DHT22;5939;56.522;14.950;2022-08-20T13:45:55;24.10;99.90
11764;DHT22;5939;56.522;14.950;2022-08-20T13:48:20;24.10;99.90
11764;DHT22;5939;56.522;14.950;2022-08-20T13:50:46;24.10;99.90
11764;DHT22;5939;56.522;14.950;2022-08-20T13:53:12;24.10;99.90
11764;DHT22;5939;56.522;14.950;2022-08-20T13:55:37;24.10;99.90
11764;DHT22;5939;56.522;14.950;2022-08-20T13:58:04;24.10;99.90
11764;DHT22;5939;56.522;14.950;2022-08-20T14:00:32;24.10;99.90
11764;DHT22;5939;56.522;14.950;2022-08-20T14:03:02;24.20;99.90
11764;DHT22;5939;56.522;14.950;2022-08-20T14:05:29;24.20;99.90
11764;DHT22;5939;56.522;14.950;2022-08-20T14:07:54;24.20;99.90
11764;DHT22;5939;56.522;14.950;2022-08-20T14:10:22;24.20;99.90
11764;DHT22;5939;56.522;14.950;2022-08-20T14:12:49;24.20;99.90
11764;DHT22;5939;56.522;14.950;2022-08-20T14:15:15;24.20;99.90
11764;DHT22;5939;56.522;14.950;2022-08-20T14:17:48;24.20;99.90
11764;DHT22;5939;56.522;14.950;2022-08-20T14:20:17;24.20;99.90
11764;DHT22;5939;56.522;14.950;2022-08-20T14:22:47;24.20;99.90
11764;DHT22;5939;56.522;14.950;2022-08-20T14:25:14;24.20;99.90
11764;DHT22;5939;56.522;14.950;2022-08-20T14:27:41;24.20;99.90
11764;DHT22;5939;56.522;14.950;2022-08-20T14:30:14;24.20;99.90
11764;DHT22;5939;56.522;14.950;2022-08-20T14:32:40;24.20;99.90
11764;DHT22;5939;56.522;14.950;2022-08-20T14:35:07;24.20;99.90
11764;DHT22;5939;56.522;14.950;2022-08-20T14:37:38;24.20;99.90
11764;DHT22;5939;56.522;14.950;2022-08-20T14:40:10;24.30;99.90
11764;DHT22;5939;56.522;14.950;2022-08-20T14:42:37;24.30;99.90
11764;DHT22;5939;56.522;14.950;2022-08-20T14:45:05;24.20;99.90
11764;DHT22;5939;56.522;14.950;2022-08-20T14:47:40;24.30;99.90
11764;DHT22;5939;56.522;14.950;2022-08-20T14:50:12;24.30;99.90
11764;DHT22;5939;56.522;14.950;2022-08-20T14:52:38;24.30;99.90
11764;DHT22;5939;56.522;14.950;2022-08-20T14:55:15;24.30;99.90
11764;DHT22;5939;56.522;14.950;2022-08-20T14:57:42;24.30;99.90
11764;DHT22;5939;56.522;14.950;2022-08-20T15:00:11;24.30;99.90
11764;DHT22;5939;56.522;14.950;2022-08-20T15:02:38;24.30;99.90
11764;DHT22;5939;56.522;14.950;2022-08-20T15:05:05;24.30;99.90
11764;DHT22;5939;56.522;14.950;2022-08-20T15:07:34;24.30;99.90
11764;DHT22;5939;56.522;14.950;2022-08-20T15:10:02;24.20;99.90
11764;DHT22;5939;56.522;14.950;2022-08-20T15:12:30;24.30;99.90
11764;DHT22;5939;56.522;14.950;2022-08-20T15:14:56;24.30;99.90
11764;DHT22;5939;56.522;14.950;2022-08-20T15:17:24;24.30;99.90
11764;DHT22;5939;56.522;14.950;2022-08-20T15:19:50;24.30;99.90
11764;DHT22;5939;56.522;14.950;2022-08-20T15:22:17;24.30;99.90
11764;DHT22;5939;56.522;14.950;2022-08-20T15:24:43;24.30;99.90
11764;DHT22;5939;56.522;14.950;2022-08-20T15:27:12;24.20;99.90
11764;DHT22;5939;56.522;14.950;2022-08-20T15:29:39;24.20;99.90
11764;DHT22;5939;56.522;14.950;2022-08-20T15:32:05;24.30;99.90
11764;DHT22;5939;56.522;14.950;2022-08-20T15:34:33;24.20;99.90
11764;DHT22;5939;56.522;14.950;2022-08-20T15:37:08;24.20;99.90
11764;DHT22;5939;56.522;14.950;2022-08-20T15:39:35;24.20;99.90
11764;DHT22;5939;56.522;14.950;2022-08-20T15:42:01;24.20;99.90